Saint John, ND (58369)

5:48 AM CDT on July 24, 2014 (GMT -0500)
Rolla (K06D) Elev 1824 ft | 48.88 °N, 99.62 °W | Change Station

Current weather conditions updated 13 minutes ago

Partly Cloudy
Partly Cloudy
57 °F
Feels Like 57 °F
N
9
Wind Variable Wind from SE

Today is forecast to be Warmer than yesterday. Partly cloudy with a stray thunderstorm tonight.

Today
High -- | Low -- °F
--% Chance of Precip.
Yesterday
High -- | Low -- °F
Precip. -- in
6:01 AM 9:28 PM
Waning Crescent, 6% visible
Pressure 30.08 in
Visibility 10.0 miles
Clouds Few 7000 ft
Dew Point 57 °F
Humidity 100%
Rainfall 0.00 in
Snow Depth Not available.
UV 0 out of 12
Pollen 6.50 out of 12
Air Quality Not available.
Flu Activity Not available.
METAR K06D 241035Z AUTO 14008KT 10SM FEW070 14/14 A3008 RMK AO2

More Conditions Fewer Conditions

Pressure 30.08 in
Visibility 10.0 miles
Clouds Few 7000 ft
Dew Point 57 °F
Humidity 100%
Rainfall 0.00 in
Snow Depth Not available.
UV 0 out of 12
Pollen 6.50 out of 12
Air Quality Not available.
Flu Activity Not available.
METAR K06D 241035Z AUTO 14008KT 10SM FEW070 14/14 A3008 RMK AO2

More Conditions Fewer Conditions

10-Day Weather Forecast

Almanac

Astronomy

Jul. 24, 2014 Rise Set
Actual Time 6:01 AM CDT 9:28 PM CDT
Civil Twilight 5:22 AM CDT 10:07 PM CDT
Nautical Twilight 4:31 AM CDT 10:58 PM CDT
Astronomical Twilight 3:21 AM CDT 12:07 AM CDT
Moon 4:13 AM CDT 7:41 PM CDT
Length of Visible Light 16h 44m
Length of Day
15h 26m
Tomorrow will be 2m 29s shorter.
Waning Crescent, 6% of the Moon is Illuminated
Today
Waning Crescent
Jul 26
New
Aug 3
First Quarter
Aug 10
Full
Aug 17
Last Quarter

Today's Extremes

State Highs State Lows

Community

WunderPhotos

Upload Photos

1,736,966 photos uploaded!

Nearby

Snow Depth

Station Depth Elevation
No new snow has been reported.

Earthquake Activity

City Distance Mag. Time & Date
No recent earthquake activity has been reported nearby.
Minimum magnitude displayed is 2.5.

Coastal Water Temperatures

Place Temperature
No Stations Reporting

Nearby Weather Stations

Station Location Temp. Dew Point Humidity Wind Precip. Elev Updated Type
RAWS TURTLE MOUNTAIN ND, Saint John, ND 59 °F 57 °F 92% East  at  9 mph 0.00 in / hr 1858 ft 4:22 AM CDT MADIS
Fairburn Farms, Boissevain 58.6 °F 57 °F 94% SE  at  5.0 mph 0.00 in / hr 1749 ft 5:38 AM CDT Normal
APRSWXNET Boissevain , Saint John, ND 58 °F 56 °F 94% SSE  at  10 mph 0.00 in / hr 1748 ft 5:08 AM CDT MADIS
Curwen St., Cartwright 57.0 °F 54 °F 91% East  at  2.7 mph - / hr 1525 ft 5:43 AM CDT Normal

Show More Stations Show Fewer Stations